sensor_id;sensor_type;location;lat;lon;timestamp;P1;durP1;ratioP1;P2;durP2;ratioP2
2105;SDS011;1059;52.548;13.408;2023-05-07T00:02:24;16.30;;;12.07;;
2105;SDS011;1059;52.548;13.408;2023-05-07T00:04:51;14.27;;;12.70;;
2105;SDS011;1059;52.548;13.408;2023-05-07T00:07:18;13.33;;;11.90;;
2105;SDS011;1059;52.548;13.408;2023-05-07T00:09:45;13.60;;;11.90;;
2105;SDS011;1059;52.548;13.408;2023-05-07T00:12:13;13.93;;;12.50;;
2105;SDS011;1059;52.548;13.408;2023-05-07T00:14:40;12.67;;;11.43;;
2105;SDS011;1059;52.548;13.408;2023-05-07T00:17:07;14.80;;;12.20;;
2105;SDS011;1059;52.548;13.408;2023-05-07T00:19:34;16.40;;;12.23;;
2105;SDS011;1059;52.548;13.408;2023-05-07T00:22:01;13.37;;;12.00;;
2105;SDS011;1059;52.548;13.408;2023-05-07T00:24:28;15.43;;;13.17;;
2105;SDS011;1059;52.548;13.408;2023-05-07T00:26:54;12.43;;;11.10;;
2105;SDS011;1059;52.548;13.408;2023-05-07T00:29:24;13.70;;;12.20;;
2105;SDS011;1059;52.548;13.408;2023-05-07T00:31:51;15.80;;;13.63;;
2105;SDS011;1059;52.548;13.408;2023-05-07T00:34:19;14.57;;;11.70;;
2105;SDS011;1059;52.548;13.408;2023-05-07T00:36:46;13.87;;;11.77;;
2105;SDS011;1059;52.548;13.408;2023-05-07T00:39:13;12.90;;;11.60;;
2105;SDS011;1059;52.548;13.408;2023-05-07T00:41:40;14.97;;;10.90;;
2105;SDS011;1059;52.548;13.408;2023-05-07T00:44:07;12.43;;;11.13;;
2105;SDS011;1059;52.548;13.408;2023-05-07T00:46:35;13.40;;;11.90;;
2105;SDS011;1059;52.548;13.408;2023-05-07T00:49:02;13.40;;;12.10;;
2105;SDS011;1059;52.548;13.408;2023-05-07T00:51:30;12.27;;;11.07;;
2105;SDS011;1059;52.548;13.408;2023-05-07T00:53:59;13.77;;;11.77;;
2105;SDS011;1059;52.548;13.408;2023-05-07T00:56:28;14.10;;;12.60;;
2105;SDS011;1059;52.548;13.408;2023-05-07T00:58:54;13.37;;;12.00;;
2105;SDS011;1059;52.548;13.408;2023-05-07T01:01:22;14.57;;;12.10;;
2105;SDS011;1059;52.548;13.408;2023-05-07T01:03:50;14.17;;;11.40;;
2105;SDS011;1059;52.548;13.408;2023-05-07T01:06:17;16.50;;;12.10;;
2105;SDS011;1059;52.548;13.408;2023-05-07T01:08:45;13.27;;;11.60;;
2105;SDS011;1059;52.548;13.408;2023-05-07T01:11:12;14.10;;;12.60;;
2105;SDS011;1059;52.548;13.408;2023-05-07T01:13:39;13.67;;;12.30;;
2105;SDS011;1059;52.548;13.408;2023-05-07T01:16:08;12.53;;;11.30;;
2105;SDS011;1059;52.548;13.408;2023-05-07T01:18:35;13.60;;;12.13;;
2105;SDS011;1059;52.548;13.408;2023-05-07T01:21:04;12.73;;;11.17;;
2105;SDS011;1059;52.548;13.408;2023-05-07T01:23:32;13.87;;;11.77;;
2105;SDS011;1059;52.548;13.408;2023-05-07T01:26:01;14.17;;;11.90;;
2105;SDS011;1059;52.548;13.408;2023-05-07T01:28:28;13.77;;;12.33;;
2105;SDS011;1059;52.548;13.408;2023-05-07T01:30:58;13.33;;;11.90;;
2105;SDS011;1059;52.548;13.408;2023-05-07T01:33:27;14.83;;;12.77;;
2105;SDS011;1059;52.548;13.408;2023-05-07T01:35:57;14.30;;;12.07;;
2105;SDS011;1059;52.548;13.408;2023-05-07T01:38:27;13.27;;;11.90;;
2105;SDS011;1059;52.548;13.408;2023-05-07T01:40:56;13.03;;;11.63;;
2105;SDS011;1059;52.548;13.408;2023-05-07T01:43:24;14.50;;;11.80;;
2105;SDS011;1059;52.548;13.408;2023-05-07T01:45:51;14.43;;;11.00;;
2105;SDS011;1059;52.548;13.408;2023-05-07T01:48:19;13.70;;;11.33;;
2105;SDS011;1059;52.548;13.408;2023-05-07T01:50:46;13.47;;;12.07;;
2105;SDS011;1059;52.548;13.408;2023-05-07T01:53:14;12.10;;;10.90;;
2105;SDS011;1059;52.548;13.408;2023-05-07T01:55:41;11.87;;;10.67;;
2105;SDS011;1059;52.548;13.408;2023-05-07T01:58:09;16.63;;;12.10;;
2105;SDS011;1059;52.548;13.408;2023-05-07T02:00:36;12.03;;;10.70;;
2105;SDS011;1059;52.548;13.408;2023-05-07T02:03:03;12.73;;;11.43;;
2105;SDS011;1059;52.548;13.408;2023-05-07T02:05:29;13.60;;;11.80;;
2105;SDS011;1059;52.548;13.408;2023-05-07T02:07:56;13.20;;;11.80;;
2105;SDS011;1059;52.548;13.408;2023-05-07T02:10:23;12.47;;;10.83;;
2105;SDS011;1059;52.548;13.408;2023-05-07T02:12:50;14.80;;;10.47;;
2105;SDS011;1059;52.548;13.408;2023-05-07T02:15:18;13.00;;;10.77;;
2105;SDS011;1059;52.548;13.408;2023-05-07T02:17:57;15.07;;;11.43;;
2105;SDS011;1059;52.548;13.408;2023-05-07T02:20:25;12.07;;;10.87;;
2105;SDS011;1059;52.548;13.408;2023-05-07T02:22:52;13.60;;;10.70;;
2105;SDS011;1059;52.548;13.408;2023-05-07T02:25:19;11.67;;;10.57;;
2105;SDS011;1059;52.548;13.408;2023-05-07T02:27:46;12.23;;;11.00;;
2105;SDS011;1059;52.548;13.408;2023-05-07T02:30:13;13.23;;;11.70;;
2105;SDS011;1059;52.548;13.408;2023-05-07T02:32:42;11.90;;;10.70;;
2105;SDS011;1059;52.548;13.408;2023-05-07T02:35:08;13.60;;;12.13;;
2105;SDS011;1059;52.548;13.408;2023-05-07T02:37:35;13.43;;;11.60;;
2105;SDS011;1059;52.548;13.408;2023-05-07T02:40:02;12.47;;;11.17;;
2105;SDS011;1059;52.548;13.408;2023-05-07T02:42:30;13.70;;;10.53;;
2105;SDS011;1059;52.548;13.408;2023-05-07T02:44:57;13.37;;;11.97;;
2105;SDS011;1059;52.548;13.408;2023-05-07T02:47:24;12.10;;;10.83;;
2105;SDS011;1059;52.548;13.408;2023-05-07T02:49:53;12.07;;;10.60;;
2105;SDS011;1059;52.548;13.408;2023-05-07T02:52:20;12.97;;;11.67;;
2105;SDS011;1059;52.548;13.408;2023-05-07T02:54:47;12.47;;;11.17;;
2105;SDS011;1059;52.548;13.408;2023-05-07T02:57:14;13.73;;;11.70;;
2105;SDS011;1059;52.548;13.408;2023-05-07T02:59:41;10.93;;;9.83;;
2105;SDS011;1059;52.548;13.408;2023-05-07T03:02:08;17.57;;;11.60;;
2105;SDS011;1059;52.548;13.408;2023-05-07T03:04:35;12.07;;;10.73;;
2105;SDS011;1059;52.548;13.408;2023-05-07T03:07:03;11.60;;;10.50;;
2105;SDS011;1059;52.548;13.408;2023-05-07T03:09:30;12.27;;;10.03;;
2105;SDS011;1059;52.548;13.408;2023-05-07T03:11:57;11.30;;;10.20;;
2105;SDS011;1059;52.548;13.408;2023-05-07T03:14:23;9.90;;;9.00;;
2105;SDS011;1059;52.548;13.408;2023-05-07T03:16:50;10.97;;;9.83;;
2105;SDS011;1059;52.548;13.408;2023-05-07T03:19:17;13.37;;;10.70;;
2105;SDS011;1059;52.548;13.408;2023-05-07T03:21:44;12.03;;;9.50;;
2105;SDS011;1059;52.548;13.408;2023-05-07T03:24:12;11.60;;;10.40;;
2105;SDS011;1059;52.548;13.408;2023-05-07T03:26:39;13.13;;;10.33;;
2105;SDS011;1059;52.548;13.408;2023-05-07T03:29:06;13.53;;;10.57;;
2105;SDS011;1059;52.548;13.408;2023-05-07T03:31:32;10.63;;;9.63;;
2105;SDS011;1059;52.548;13.408;2023-05-07T03:33:59;10.30;;;9.20;;
2105;SDS011;1059;52.548;13.408;2023-05-07T03:36:26;10.63;;;9.53;;
2105;SDS011;1059;52.548;13.408;2023-05-07T03:38:53;10.53;;;9.43;;
2105;SDS011;1059;52.548;13.408;2023-05-07T03:41:21;11.00;;;9.80;;
2105;SDS011;1059;52.548;13.408;2023-05-07T03:43:48;10.83;;;9.50;;
2105;SDS011;1059;52.548;13.408;2023-05-07T03:46:15;10.43;;;9.43;;
2105;SDS011;1059;52.548;13.408;2023-05-07T03:48:42;11.50;;;10.00;;
2105;SDS011;1059;52.548;13.408;2023-05-07T03:51:09;11.40;;;9.97;;
2105;SDS011;1059;52.548;13.408;2023-05-07T03:53:35;11.23;;;10.00;;
2105;SDS011;1059;52.548;13.408;2023-05-07T03:56:02;10.50;;;9.50;;
2105;SDS011;1059;52.548;13.408;2023-05-07T03:58:31;12.03;;;9.90;;
2105;SDS011;1059;52.548;13.408;2023-05-07T04:00:58;10.47;;;9.50;;
2105;SDS011;1059;52.548;13.408;2023-05-07T04:03:24;11.50;;;9.50;;
2105;SDS011;1059;52.548;13.408;2023-05-07T04:05:51;10.67;;;9.67;;
2105;SDS011;1059;52.548;13.408;2023-05-07T04:08:18;10.60;;;9.23;;
2105;SDS011;1059;52.548;13.408;2023-05-07T04:10:45;10.23;;;9.17;;
2105;SDS011;1059;52.548;13.408;2023-05-07T04:13:12;11.03;;;9.27;;
2105;SDS011;1059;52.548;13.408;2023-05-07T04:15:40;10.87;;;9.30;;
2105;SDS011;1059;52.548;13.408;2023-05-07T04:18:07;9.97;;;8.90;;
2105;SDS011;1059;52.548;13.408;2023-05-07T04:20:34;12.53;;;9.73;;
2105;SDS011;1059;52.548;13.408;2023-05-07T04:23:02;11.70;;;9.60;;
2105;SDS011;1059;52.548;13.408;2023-05-07T04:25:29;10.80;;;9.70;;
2105;SDS011;1059;52.548;13.408;2023-05-07T04:27:56;12.70;;;10.20;;
2105;SDS011;1059;52.548;13.408;2023-05-07T04:30:22;10.20;;;9.10;;
2105;SDS011;1059;52.548;13.408;2023-05-07T04:32:51;11.60;;;9.67;;
2105;SDS011;1059;52.548;13.408;2023-05-07T04:35:18;10.23;;;9.03;;
2105;SDS011;1059;52.548;13.408;2023-05-07T04:37:45;9.83;;;8.80;;
2105;SDS011;1059;52.548;13.408;2023-05-07T04:40:11;9.87;;;8.80;;
2105;SDS011;1059;52.548;13.408;2023-05-07T04:42:39;10.73;;;9.20;;
2105;SDS011;1059;52.548;13.408;2023-05-07T04:45:06;8.80;;;7.90;;
2105;SDS011;1059;52.548;13.408;2023-05-07T04:47:33;9.10;;;8.20;;
2105;SDS011;1059;52.548;13.408;2023-05-07T04:50:02;10.03;;;9.03;;
2105;SDS011;1059;52.548;13.408;2023-05-07T04:52:29;9.10;;;8.10;;
2105;SDS011;1059;52.548;13.408;2023-05-07T04:54:56;10.20;;;9.10;;
2105;SDS011;1059;52.548;13.408;2023-05-07T04:57:25;9.60;;;8.53;;
2105;SDS011;1059;52.548;13.408;2023-05-07T04:59:51;11.77;;;9.30;;
2105;SDS011;1059;52.548;13.408;2023-05-07T05:02:18;9.20;;;8.20;;
2105;SDS011;1059;52.548;13.408;2023-05-07T05:04:45;9.60;;;7.90;;
2105;SDS011;1059;52.548;13.408;2023-05-07T05:07:13;11.03;;;8.50;;
2105;SDS011;1059;52.548;13.408;2023-05-07T05:09:40;8.67;;;7.30;;
2105;SDS011;1059;52.548;13.408;2023-05-07T05:12:07;9.47;;;8.53;;
2105;SDS011;1059;52.548;13.408;2023-05-07T05:14:34;8.17;;;7.37;;
2105;SDS011;1059;52.548;13.408;2023-05-07T05:17:01;8.53;;;7.73;;
2105;SDS011;1059;52.548;13.408;2023-05-07T05:19:27;9.20;;;8.30;;
2105;SDS011;1059;52.548;13.408;2023-05-07T05:21:54;9.07;;;8.17;;
2105;SDS011;1059;52.548;13.408;2023-05-07T05:24:22;8.17;;;7.33;;
2105;SDS011;1059;52.548;13.408;2023-05-07T05:26:49;9.50;;;7.90;;
2105;SDS011;1059;52.548;13.408;2023-05-07T05:29:19;10.30;;;8.73;;
2105;SDS011;1059;52.548;13.408;2023-05-07T05:31:45;9.00;;;8.10;;
2105;SDS011;1059;52.548;13.408;2023-05-07T05:34:12;8.93;;;7.80;;
2105;SDS011;1059;52.548;13.408;2023-05-07T05:36:39;11.43;;;8.00;;
2105;SDS011;1059;52.548;13.408;2023-05-07T05:39:06;9.33;;;8.30;;
2105;SDS011;1059;52.548;13.408;2023-05-07T05:41:35;9.07;;;8.13;;
2105;SDS011;1059;52.548;13.408;2023-05-07T05:44:01;8.77;;;7.87;;
2105;SDS011;1059;52.548;13.408;2023-05-07T05:46:28;9.10;;;8.20;;
2105;SDS011;1059;52.548;13.408;2023-05-07T05:48:56;13.67;;;8.43;;
2105;SDS011;1059;52.548;13.408;2023-05-07T05:51:22;8.97;;;8.07;;
2105;SDS011;1059;52.548;13.408;2023-05-07T05:53:50;12.00;;;9.03;;
2105;SDS011;1059;52.548;13.408;2023-05-07T05:56:16;9.57;;;7.57;;
2105;SDS011;1059;52.548;13.408;2023-05-07T05:58:45;7.87;;;7.00;;
2105;SDS011;1059;52.548;13.408;2023-05-07T06:01:12;8.30;;;7.50;;
2105;SDS011;1059;52.548;13.408;2023-05-07T06:03:39;8.50;;;7.10;;
2105;SDS011;1059;52.548;13.408;2023-05-07T06:06:06;10.00;;;7.37;;
2105;SDS011;1059;52.548;13.408;2023-05-07T06:08:33;10.53;;;7.60;;
2105;SDS011;1059;52.548;13.408;2023-05-07T06:11:00;8.43;;;7.63;;
2105;SDS011;1059;52.548;13.408;2023-05-07T06:13:28;11.43;;;8.10;;
2105;SDS011;1059;52.548;13.408;2023-05-07T06:15:56;9.07;;;8.17;;
2105;SDS011;1059;52.548;13.408;2023-05-07T06:18:23;7.33;;;6.63;;
2105;SDS011;1059;52.548;13.408;2023-05-07T06:20:50;10.27;;;8.37;;
2105;SDS011;1059;52.548;13.408;2023-05-07T06:23:17;7.43;;;6.03;;
2105;SDS011;1059;52.548;13.408;2023-05-07T06:25:47;8.87;;;8.00;;
2105;SDS011;1059;52.548;13.408;2023-05-07T06:28:15;11.00;;;6.47;;
2105;SDS011;1059;52.548;13.408;2023-05-07T06:30:42;8.50;;;7.60;;
2105;SDS011;1059;52.548;13.408;2023-05-07T06:33:10;7.27;;;6.50;;
2105;SDS011;1059;52.548;13.408;2023-05-07T06:35:37;7.77;;;7.03;;
2105;SDS011;1059;52.548;13.408;2023-05-07T06:38:04;7.10;;;6.40;;
2105;SDS011;1059;52.548;13.408;2023-05-07T06:40:30;7.90;;;7.13;;
2105;SDS011;1059;52.548;13.408;2023-05-07T06:42:57;8.40;;;7.47;;
2105;SDS011;1059;52.548;13.408;2023-05-07T06:45:24;8.00;;;7.20;;
2105;SDS011;1059;52.548;13.408;2023-05-07T06:47:51;7.90;;;7.20;;
2105;SDS011;1059;52.548;13.408;2023-05-07T06:50:21;7.87;;;6.47;;
2105;SDS011;1059;52.548;13.408;2023-05-07T06:52:48;7.47;;;6.00;;
2105;SDS011;1059;52.548;13.408;2023-05-07T06:55:15;7.40;;;6.40;;
2105;SDS011;1059;52.548;13.408;2023-05-07T06:57:42;6.37;;;5.77;;
2105;SDS011;1059;52.548;13.408;2023-05-07T07:00:09;6.87;;;6.17;;
2105;SDS011;1059;52.548;13.408;2023-05-07T07:02:37;8.60;;;6.40;;
2105;SDS011;1059;52.548;13.408;2023-05-07T07:05:04;7.53;;;6.70;;
2105;SDS011;1059;52.548;13.408;2023-05-07T07:07:33;11.80;;;6.80;;
2105;SDS011;1059;52.548;13.408;2023-05-07T07:09:59;7.90;;;6.87;;
2105;SDS011;1059;52.548;13.408;2023-05-07T07:12:27;11.50;;;10.30;;
2105;SDS011;1059;52.548;13.408;2023-05-07T07:14:54;9.40;;;6.70;;
2105;SDS011;1059;52.548;13.408;2023-05-07T07:17:21;7.27;;;6.57;;
2105;SDS011;1059;52.548;13.408;2023-05-07T07:19:48;9.90;;;8.93;;
2105;SDS011;1059;52.548;13.408;2023-05-07T07:22:15;6.73;;;6.10;;
2105;SDS011;1059;52.548;13.408;2023-05-07T07:24:44;8.30;;;7.10;;
2105;SDS011;1059;52.548;13.408;2023-05-07T07:27:10;6.43;;;5.30;;
2105;SDS011;1059;52.548;13.408;2023-05-07T07:29:37;4.90;;;4.37;;
2105;SDS011;1059;52.548;13.408;2023-05-07T07:32:04;9.10;;;5.27;;
2105;SDS011;1059;52.548;13.408;2023-05-07T07:34:31;5.57;;;5.00;;
2105;SDS011;1059;52.548;13.408;2023-05-07T07:36:58;9.43;;;5.80;;
2105;SDS011;1059;52.548;13.408;2023-05-07T07:39:30;7.33;;;4.80;;
2105;SDS011;1059;52.548;13.408;2023-05-07T07:41:58;6.23;;;5.63;;
2105;SDS011;1059;52.548;13.408;2023-05-07T07:44:25;5.33;;;4.83;;
2105;SDS011;1059;52.548;13.408;2023-05-07T07:46:53;6.00;;;4.67;;
2105;SDS011;1059;52.548;13.408;2023-05-07T07:49:20;4.70;;;4.30;;
2105;SDS011;1059;52.548;13.408;2023-05-07T07:51:47;5.17;;;4.20;;
2105;SDS011;1059;52.548;13.408;2023-05-07T07:54:14;5.93;;;3.77;;
2105;SDS011;1059;52.548;13.408;2023-05-07T07:56:41;4.70;;;4.30;;
2105;SDS011;1059;52.548;13.408;2023-05-07T07:59:09;5.03;;;3.63;;
2105;SDS011;1059;52.548;13.408;2023-05-07T08:01:36;4.80;;;4.10;;
2105;SDS011;1059;52.548;13.408;2023-05-07T08:04:03;4.17;;;3.73;;
2105;SDS011;1059;52.548;13.408;2023-05-07T08:06:30;5.83;;;4.10;;
2105;SDS011;1059;52.548;13.408;2023-05-07T08:08:57;4.80;;;4.20;;
2105;SDS011;1059;52.548;13.408;2023-05-07T08:11:24;4.73;;;4.00;;
2105;SDS011;1059;52.548;13.408;2023-05-07T08:13:51;4.30;;;3.97;;
2105;SDS011;1059;52.548;13.408;2023-05-07T08:16:19;5.97;;;4.30;;
2105;SDS011;1059;52.548;13.408;2023-05-07T08:18:46;4.00;;;3.60;;
2105;SDS011;1059;52.548;13.408;2023-05-07T08:21:13;5.33;;;3.13;;
2105;SDS011;1059;52.548;13.408;2023-05-07T08:23:40;3.90;;;3.60;;
2105;SDS011;1059;52.548;13.408;2023-05-07T08:26:08;4.10;;;3.70;;
2105;SDS011;1059;52.548;13.408;2023-05-07T08:28:35;3.77;;;3.47;;
2105;SDS011;1059;52.548;13.408;2023-05-07T08:31:02;3.70;;;3.40;;
2105;SDS011;1059;52.548;13.408;2023-05-07T08:33:30;3.93;;;3.53;;
2105;SDS011;1059;52.548;13.408;2023-05-07T08:35:57;3.97;;;3.63;;
2105;SDS011;1059;52.548;13.408;2023-05-07T08:38:24;3.43;;;3.13;;
2105;SDS011;1059;52.548;13.408;2023-05-07T08:40:51;3.40;;;3.10;;
2105;SDS011;1059;52.548;13.408;2023-05-07T08:43:18;4.00;;;3.60;;
2105;SDS011;1059;52.548;13.408;2023-05-07T08:45:47;4.43;;;3.30;;
2105;SDS011;1059;52.548;13.408;2023-05-07T08:48:20;4.00;;;3.60;;
2105;SDS011;1059;52.548;13.408;2023-05-07T08:50:52;5.03;;;3.90;;
2105;SDS011;1059;52.548;13.408;2023-05-07T08:53:19;5.60;;;3.53;;
2105;SDS011;1059;52.548;13.408;2023-05-07T08:55:47;3.47;;;3.17;;
2105;SDS011;1059;52.548;13.408;2023-05-07T08:58:14;4.70;;;3.73;;
2105;SDS011;1059;52.548;13.408;2023-05-07T09:00:41;3.47;;;3.17;;
2105;SDS011;1059;52.548;13.408;2023-05-07T09:03:08;3.77;;;3.47;;
2105;SDS011;1059;52.548;13.408;2023-05-07T09:05:37;3.90;;;3.60;;
2105;SDS011;1059;52.548;13.408;2023-05-07T09:08:05;3.73;;;3.43;;
2105;SDS011;1059;52.548;13.408;2023-05-07T09:10:33;3.43;;;3.13;;
2105;SDS011;1059;52.548;13.408;2023-05-07T09:13:00;5.37;;;3.80;;
2105;SDS011;1059;52.548;13.408;2023-05-07T09:15:28;2.90;;;2.70;;
2105;SDS011;1059;52.548;13.408;2023-05-07T09:17:58;5.37;;;3.50;;
2105;SDS011;1059;52.548;13.408;2023-05-07T09:20:27;3.67;;;3.37;;
2105;SDS011;1059;52.548;13.408;2023-05-07T09:22:56;3.20;;;2.90;;
2105;SDS011;1059;52.548;13.408;2023-05-07T09:25:28;4.70;;;3.27;;
2105;SDS011;1059;52.548;13.408;2023-05-07T09:27:56;3.53;;;3.20;;
2105;SDS011;1059;52.548;13.408;2023-05-07T09:30:26;2.87;;;2.63;;
2105;SDS011;1059;52.548;13.408;2023-05-07T09:32:54;3.90;;;3.20;;
2105;SDS011;1059;52.548;13.408;2023-05-07T09:35:21;3.47;;;3.03;;
2105;SDS011;1059;52.548;13.408;2023-05-07T09:37:51;3.50;;;2.97;;
2105;SDS011;1059;52.548;13.408;2023-05-07T09:40:20;4.53;;;3.27;;
2105;SDS011;1059;52.548;13.408;2023-05-07T09:42:49;3.53;;;3.23;;
2105;SDS011;1059;52.548;13.408;2023-05-07T09:45:16;4.27;;;3.37;;
2105;SDS011;1059;52.548;13.408;2023-05-07T09:47:48;5.13;;;3.07;;
2105;SDS011;1059;52.548;13.408;2023-05-07T09:50:19;3.40;;;3.10;;
2105;SDS011;1059;52.548;13.408;2023-05-07T09:52:51;3.70;;;3.00;;
2105;SDS011;1059;52.548;13.408;2023-05-07T09:55:19;2.90;;;2.70;;
2105;SDS011;1059;52.548;13.408;2023-05-07T09:57:47;2.80;;;2.53;;
2105;SDS011;1059;52.548;13.408;2023-05-07T10:00:16;2.80;;;2.53;;
2105;SDS011;1059;52.548;13.408;2023-05-07T10:02:46;2.73;;;2.53;;
2105;SDS011;1059;52.548;13.408;2023-05-07T10:05:14;4.70;;;3.00;;
2105;SDS011;1059;52.548;13.408;2023-05-07T10:07:42;4.30;;;3.10;;
2105;SDS011;1059;52.548;13.408;2023-05-07T10:10:10;2.53;;;2.33;;
2105;SDS011;1059;52.548;13.408;2023-05-07T10:12:38;2.30;;;1.97;;
2105;SDS011;1059;52.548;13.408;2023-05-07T10:15:08;3.30;;;3.00;;
2105;SDS011;1059;52.548;13.408;2023-05-07T10:17:36;2.80;;;2.20;;
2105;SDS011;1059;52.548;13.408;2023-05-07T10:20:04;2.47;;;2.27;;
2105;SDS011;1059;52.548;13.408;2023-05-07T10:22:37;3.10;;;2.87;;
2105;SDS011;1059;52.548;13.408;2023-05-07T10:25:11;2.20;;;2.00;;
2105;SDS011;1059;52.548;13.408;2023-05-07T10:27:43;3.87;;;2.20;;
2105;SDS011;1059;52.548;13.408;2023-05-07T10:30:15;2.60;;;2.40;;
2105;SDS011;1059;52.548;13.408;2023-05-07T10:32:53;2.97;;;2.50;;
2105;SDS011;1059;52.548;13.408;2023-05-07T10:35:24;2.23;;;2.03;;
2105;SDS011;1059;52.548;13.408;2023-05-07T10:37:55;1.90;;;1.70;;
2105;SDS011;1059;52.548;13.408;2023-05-07T10:40:22;1.67;;;1.50;;
2105;SDS011;1059;52.548;13.408;2023-05-07T10:42:53;2.60;;;1.93;;
2105;SDS011;1059;52.548;13.408;2023-05-07T10:45:22;2.40;;;1.90;;
2105;SDS011;1059;52.548;13.408;2023-05-07T10:48:05;2.20;;;2.00;;
2105;SDS011;1059;52.548;13.408;2023-05-07T10:50:33;2.20;;;2.00;;
2105;SDS011;1059;52.548;13.408;2023-05-07T10:55:52;2.70;;;2.37;;
2105;SDS011;1059;52.548;13.408;2023-05-07T10:58:52;8.87;;;1.83;;
2105;SDS011;1059;52.548;13.408;2023-05-07T11:04:17;2.80;;;1.80;;
2105;SDS011;1059;52.548;13.408;2023-05-07T11:09:54;2.80;;;2.43;;
2105;SDS011;1059;52.548;13.408;2023-05-07T11:18:17;3.10;;;1.97;;
2105;SDS011;1059;52.548;13.408;2023-05-07T11:20:46;2.00;;;1.73;;
2105;SDS011;1059;52.548;13.408;2023-05-07T11:26:23;2.83;;;2.37;;
2105;SDS011;1059;52.548;13.408;2023-05-07T11:28:51;2.40;;;1.80;;
2105;SDS011;1059;52.548;13.408;2023-05-07T11:31:23;4.10;;;2.00;;
2105;SDS011;1059;52.548;13.408;2023-05-07T11:33:51;1.90;;;1.80;;
2105;SDS011;1059;52.548;13.408;2023-05-07T11:36:21;2.97;;;1.73;;
2105;SDS011;1059;52.548;13.408;2023-05-07T11:38:49;4.23;;;1.80;;
2105;SDS011;1059;52.548;13.408;2023-05-07T11:41:16;2.70;;;1.43;;
2105;SDS011;1059;52.548;13.408;2023-05-07T11:43:58;2.07;;;1.87;;
2105;SDS011;1059;52.548;13.408;2023-05-07T11:46:26;2.00;;;1.50;;
2105;SDS011;1059;52.548;13.408;2023-05-07T11:48:53;2.27;;;1.27;;
2105;SDS011;1059;52.548;13.408;2023-05-07T11:51:22;2.37;;;1.73;;
2105;SDS011;1059;52.548;13.408;2023-05-07T11:53:51;2.93;;;2.27;;
2105;SDS011;1059;52.548;13.408;2023-05-07T11:56:18;1.73;;;1.63;;
2105;SDS011;1059;52.548;13.408;2023-05-07T11:58:46;1.97;;;1.87;;
2105;SDS011;1059;52.548;13.408;2023-05-07T12:01:15;2.00;;;1.80;;
2105;SDS011;1059;52.548;13.408;2023-05-07T12:03:43;3.20;;;2.03;;
2105;SDS011;1059;52.548;13.408;2023-05-07T12:06:11;2.20;;;1.70;;
2105;SDS011;1059;52.548;13.408;2023-05-07T12:08:42;2.27;;;1.60;;
2105;SDS011;1059;52.548;13.408;2023-05-07T12:11:12;1.83;;;1.73;;
2105;SDS011;1059;52.548;13.408;2023-05-07T12:13:42;3.70;;;1.57;;
2105;SDS011;1059;52.548;13.408;2023-05-07T12:16:09;2.83;;;1.93;;
2105;SDS011;1059;52.548;13.408;2023-05-07T12:18:37;1.70;;;1.50;;
2105;SDS011;1059;52.548;13.408;2023-05-07T12:21:04;1.60;;;1.43;;
2105;SDS011;1059;52.548;13.408;2023-05-07T12:23:33;3.20;;;2.10;;
2105;SDS011;1059;52.548;13.408;2023-05-07T12:26:02;2.00;;;1.47;;
2105;SDS011;1059;52.548;13.408;2023-05-07T12:28:30;2.47;;;1.40;;
2105;SDS011;1059;52.548;13.408;2023-05-07T12:31:03;1.37;;;1.23;;
2105;SDS011;1059;52.548;13.408;2023-05-07T12:33:30;1.83;;;1.70;;
2105;SDS011;1059;52.548;13.408;2023-05-07T12:35:58;1.83;;;1.40;;
2105;SDS011;1059;52.548;13.408;2023-05-07T12:38:32;1.40;;;1.30;;
2105;SDS011;1059;52.548;13.408;2023-05-07T12:41:03;2.47;;;1.57;;
2105;SDS011;1059;52.548;13.408;2023-05-07T12:43:30;2.27;;;1.47;;
2105;SDS011;1059;52.548;13.408;2023-05-07T12:45:59;1.60;;;1.50;;
2105;SDS011;1059;52.548;13.408;2023-05-07T12:48:27;2.00;;;1.50;;
2105;SDS011;1059;52.548;13.408;2023-05-07T12:50:54;1.60;;;1.50;;
2105;SDS011;1059;52.548;13.408;2023-05-07T12:53:22;1.97;;;1.33;;
2105;SDS011;1059;52.548;13.408;2023-05-07T12:55:50;1.80;;;1.20;;
2105;SDS011;1059;52.548;13.408;2023-05-07T12:58:20;1.67;;;1.57;;
2105;SDS011;1059;52.548;13.408;2023-05-07T13:00:50;1.77;;;1.30;;
2105;SDS011;1059;52.548;13.408;2023-05-07T13:03:21;3.50;;;1.30;;
2105;SDS011;1059;52.548;13.408;2023-05-07T13:05:50;2.70;;;1.33;;
2105;SDS011;1059;52.548;13.408;2023-05-07T13:08:23;3.53;;;1.53;;
2105;SDS011;1059;52.548;13.408;2023-05-07T13:10:54;1.70;;;1.50;;
2105;SDS011;1059;52.548;13.408;2023-05-07T13:13:22;2.70;;;1.73;;
2105;SDS011;1059;52.548;13.408;2023-05-07T13:15:50;1.50;;;1.40;;
2105;SDS011;1059;52.548;13.408;2023-05-07T13:18:17;2.13;;;1.63;;
2105;SDS011;1059;52.548;13.408;2023-05-07T13:20:44;3.50;;;1.57;;
2105;SDS011;1059;52.548;13.408;2023-05-07T13:23:10;1.90;;;1.67;;
2105;SDS011;1059;52.548;13.408;2023-05-07T13:25:37;3.43;;;1.63;;
2105;SDS011;1059;52.548;13.408;2023-05-07T13:28:05;1.90;;;1.57;;
2105;SDS011;1059;52.548;13.408;2023-05-07T13:30:33;2.00;;;1.60;;
2105;SDS011;1059;52.548;13.408;2023-05-07T13:33:00;2.13;;;1.93;;
2105;SDS011;1059;52.548;13.408;2023-05-07T13:35:27;2.00;;;1.60;;
2105;SDS011;1059;52.548;13.408;2023-05-07T13:37:54;3.07;;;1.70;;
2105;SDS011;1059;52.548;13.408;2023-05-07T13:40:21;3.70;;;1.40;;
2105;SDS011;1059;52.548;13.408;2023-05-07T13:42:49;2.30;;;1.67;;
2105;SDS011;1059;52.548;13.408;2023-05-07T13:45:16;1.83;;;1.50;;
2105;SDS011;1059;52.548;13.408;2023-05-07T13:47:44;3.30;;;1.87;;
2105;SDS011;1059;52.548;13.408;2023-05-07T13:50:12;3.30;;;1.43;;
2105;SDS011;1059;52.548;13.408;2023-05-07T13:52:40;1.90;;;1.70;;
2105;SDS011;1059;52.548;13.408;2023-05-07T13:55:08;1.40;;;1.30;;
2105;SDS011;1059;52.548;13.408;2023-05-07T13:57:36;3.20;;;1.80;;
2105;SDS011;1059;52.548;13.408;2023-05-07T14:00:03;5.03;;;1.50;;
2105;SDS011;1059;52.548;13.408;2023-05-07T14:02:31;1.77;;;1.60;;
2105;SDS011;1059;52.548;13.408;2023-05-07T14:04:59;4.17;;;1.47;;
2105;SDS011;1059;52.548;13.408;2023-05-07T14:07:26;5.83;;;1.73;;
2105;SDS011;1059;52.548;13.408;2023-05-07T14:09:53;2.47;;;1.33;;
2105;SDS011;1059;52.548;13.408;2023-05-07T14:12:20;1.87;;;1.50;;
2105;SDS011;1059;52.548;13.408;2023-05-07T14:14:47;1.87;;;1.53;;
2105;SDS011;1059;52.548;13.408;2023-05-07T14:17:15;5.37;;;2.00;;
2105;SDS011;1059;52.548;13.408;2023-05-07T14:19:42;2.10;;;1.73;;
2105;SDS011;1059;52.548;13.408;2023-05-07T14:22:10;3.10;;;1.60;;
2105;SDS011;1059;52.548;13.408;2023-05-07T14:24:39;4.50;;;1.53;;
2105;SDS011;1059;52.548;13.408;2023-05-07T14:27:06;1.87;;;1.73;;
2105;SDS011;1059;52.548;13.408;2023-05-07T14:29:32;1.53;;;1.33;;
2105;SDS011;1059;52.548;13.408;2023-05-07T14:32:00;1.50;;;1.37;;
2105;SDS011;1059;52.548;13.408;2023-05-07T14:34:30;2.80;;;1.80;;
2105;SDS011;1059;52.548;13.408;2023-05-07T14:36:57;3.80;;;3.40;;
2105;SDS011;1059;52.548;13.408;2023-05-07T14:39:27;3.60;;;3.30;;
2105;SDS011;1059;52.548;13.408;2023-05-07T14:41:54;2.53;;;2.30;;
2105;SDS011;1059;52.548;13.408;2023-05-07T14:44:21;2.07;;;1.87;;
2105;SDS011;1059;52.548;13.408;2023-05-07T14:46:48;1.90;;;1.77;;
2105;SDS011;1059;52.548;13.408;2023-05-07T14:49:15;2.80;;;1.80;;
2105;SDS011;1059;52.548;13.408;2023-05-07T14:51:43;2.67;;;2.47;;
2105;SDS011;1059;52.548;13.408;2023-05-07T14:54:10;2.40;;;2.03;;
2105;SDS011;1059;52.548;13.408;2023-05-07T14:56:39;5.10;;;4.60;;
2105;SDS011;1059;52.548;13.408;2023-05-07T14:59:06;4.40;;;2.37;;
2105;SDS011;1059;52.548;13.408;2023-05-07T15:01:34;4.23;;;2.53;;
2105;SDS011;1059;52.548;13.408;2023-05-07T15:04:02;2.80;;;2.20;;
2105;SDS011;1059;52.548;13.408;2023-05-07T15:06:29;5.67;;;5.10;;
2105;SDS011;1059;52.548;13.408;2023-05-07T15:08:56;3.10;;;2.80;;
2105;SDS011;1059;52.548;13.408;2023-05-07T15:11:23;2.47;;;2.27;;
2105;SDS011;1059;52.548;13.408;2023-05-07T15:13:51;2.30;;;2.07;;
2105;SDS011;1059;52.548;13.408;2023-05-07T15:16:18;2.63;;;2.40;;